Ever Unicorn — 9V7963 — position and weather

sailwx.info

Track history (hours):
 
Tides and Currents Weather Stations Pressure Air Temp Water Temp Dewpoint Dewpoint Depression Visibility Wind Speed Wind Dir Waves Ship Positions

Ever Unicorn

Last reported at 2016-Jun-29 18:18 UTC. Time now 2016-Jul-01 08:15 UTC.
Position N 35°36' E 141°39'.

Length 285 m; draft 11.4 m.

Type: Ship (hazmat cat D). MMSI: 564995000.

Date/timePositionNaut miles runAvg speedWind from/ knotsBaromVisibWave heightAir tempDewpointWater temp
2016-Jun-29 18:18N 35°36' E 141°39'2419.6
2016-Jun-29 17:05N 35°23' E 141°14'1019.0
2016-Jun-29 16:33N 35°18' E 141°03'2018.8
2016-Jun-29 15:29N 35°09' E 140°42'1819.2
2016-Jun-29 14:33N 34°59' E 140°23'1919.0
2016-Jun-29 13:33N 34°50' E 140°03'1918.5
2016-Jun-29 12:33N 34°42' E 139°43'  
2016-Jun-27 02:14N 25°06' E 120°33'3219.0
2016-Jun-27 00:33N 24°49' E 120°03'2418.8
2016-Jun-26 23:15N 24°34' E 119°41'1318.2
2016-Jun-26 22:33N 24°28' E 119°29'1817.8
2016-Jun-26 21:33N 24°19' E 119°13'1918.1
2016-Jun-26 20:29N 24°07' E 118°56'1918.5
2016-Jun-26 19:29N 23°55' E 118°40'1819.0
2016-Jun-26 18:33N 23°44' E 118°25'2019.7
2016-Jun-26 17:33N 23°31' E 118°09'2519.7
2016-Jun-26 16:17N 23°16' E 117°47'191 5.6
2016-Jun-25 06:29N 22°24' E 114°28'1010.8
2016-Jun-25 05:33N 22°14' E 114°28'10 9.9
2016-Jun-25 04:33N 22°07' E 114°20'19 9.7
2016-Jun-25 02:33N 22°20' E 114°05'1010.3
2016-Jun-25 01:33N 22°23' E 113°54'4 4.5
2016-Jun-25 00:33N 22°27' E 113°53'0 0.0
2016-Jun-24 21:29N 22°27' E 113°53'0 0.0
2016-Jun-24 20:11N 22°27' E 113°53'0 0.0
2016-Jun-24 19:29N 22°27' E 113°53'0 0.0
2016-Jun-24 18:29N 22°27' E 113°53'0 0.0
2016-Jun-24 17:11N 22°27' E 113°53'0 0.0
2016-Jun-24 16:23N 22°27' E 113°53'0 0.0
2016-Jun-24 15:23N 22°27' E 113°53'0 0.0
2016-Jun-24 14:29N 22°27' E 113°53'0 0.0
2016-Jun-24 13:29N 22°27' E 113°53'0 0.0
2016-Jun-24 12:29N 22°27' E 113°53'0 0.0
2016-Jun-24 11:33N 22°27' E 113°53'10 7.1
2016-Jun-24 10:05N 22°21' E 114°03'4 7.7
2016-Jun-24 09:33N 22°18' E 114°06'12 8.7
2016-Jun-24 08:10N 22°09' E 114°14'4 6.6
2016-Jun-24 07:33N 22°08' E 114°18'8 7.8
2016-Jun-24 06:33N 22°07' E 114°27'159 7.5
2016-Jun-23 09:21N 22°49' E 117°13'1313.8
2016-Jun-23 08:24N 22°58' E 117°23'6212.7
2016-Jun-23 03:32N 23°42' E 118°10'1211.8
2016-Jun-23 02:33N 23°53' E 118°14'1211.8
2016-Jun-23 01:33N 24°04' E 118°18'1212.0
2016-Jun-23 00:33N 24°16' E 118°14'1212.5
2016-Jun-22 23:33N 24°25' E 118°05'5 4.5
2016-Jun-22 22:32N 24°27' E 118°00'0 0.0
2016-Jun-22 21:32N 24°27' E 118°00'0 0.0
2016-Jun-22 20:32N 24°27' E 118°00'0 0.0
2016-Jun-22 19:32N 24°27' E 118°00'0 0.1
2016-Jun-22 18:32N 24°27' E 118°00'0 0.1
2016-Jun-22 17:32N 24°27' E 118°00'0 0.0
2016-Jun-22 16:32N 24°27' E 118°00'0 0.0
2016-Jun-22 15:32N 24°27' E 118°00'0 0.0
2016-Jun-22 14:32N 24°27' E 118°00'0 0.0
2016-Jun-22 13:32N 24°27' E 118°00'0 0.0
2016-Jun-22 12:33N 24°27' E 118°00'7 6.9
2016-Jun-22 11:33N 24°23' E 118°07'10 9.5
2016-Jun-22 10:33N 24°18' E 118°16'7 6.5
2016-Jun-22 09:33N 24°18' E 118°23'0 0.1
2016-Jun-22 08:28N 24°18' E 118°23'0 0.0
2016-Jun-22 07:22N 24°18' E 118°23'0 0.1
2016-Jun-22 06:28N 24°18' E 118°23'0 0.0
2016-Jun-22 05:28N 24°18' E 118°23'0 0.1
2016-Jun-22 04:28N 24°18' E 118°23'0 0.0
2016-Jun-22 01:04N 24°18' E 118°23'0 0.0
2016-Jun-22 00:22N 24°18' E 118°23'0 0.0
2016-Jun-21 23:31N 24°18' E 118°23'0 0.0
2016-Jun-21 22:22N 24°18' E 118°23'0 0.0
2016-Jun-21 21:28N 24°18' E 118°23'0 0.0
2016-Jun-21 20:28N 24°18' E 118°23'0 0.0
2016-Jun-21 19:22N 24°18' E 118°23'0 0.2
2016-Jun-21 18:22N 24°18' E 118°23'0 0.1
2016-Jun-21 17:16N 24°18' E 118°23'0 0.2
2016-Jun-21 16:10N 24°18' E 118°23'0 0.2
2016-Jun-21 15:32N 24°18' E 118°23'4410.6
2016-Jun-21 11:24N 24°23' E 119°10'1011.3
2016-Jun-21 10:33N 24°28' E 119°20'1111.1
2016-Jun-21 09:33N 24°32' E 119°31'1111.4
2016-Jun-21 08:33N 24°37' E 119°42'  
Track history (hours):
 
Tides and Currents Weather Stations Pressure Air Temp Water Temp Dewpoint Dewpoint Depression Visibility Wind Speed Wind Dir Waves Ship Positions

Ever Unicorn

Last reported at 2016-Jun-29 18:18 UTC. Time now 2016-Jul-01 08:15 UTC.
Position N 35°36' E 141°39'.

Length 285 m; draft 11.4 m.

Type: Ship (hazmat cat D). MMSI: 564995000.

Date/timePositionNaut miles runAvg speedWind from/ knotsBaromVisibWave heightAir tempDewpointWater temp
2016-Jun-29 18:18N 35°36' E 141°39'2419.6
2016-Jun-29 17:05N 35°23' E 141°14'1019.0
2016-Jun-29 16:33N 35°18' E 141°03'2018.8
2016-Jun-29 15:29N 35°09' E 140°42'1819.2
2016-Jun-29 14:33N 34°59' E 140°23'1919.0
2016-Jun-29 13:33N 34°50' E 140°03'1918.5
2016-Jun-29 12:33N 34°42' E 139°43'  
2016-Jun-27 02:14N 25°06' E 120°33'3219.0
2016-Jun-27 00:33N 24°49' E 120°03'2418.8
2016-Jun-26 23:15N 24°34' E 119°41'1318.2
2016-Jun-26 22:33N 24°28' E 119°29'1817.8
2016-Jun-26 21:33N 24°19' E 119°13'1918.1
2016-Jun-26 20:29N 24°07' E 118°56'1918.5
2016-Jun-26 19:29N 23°55' E 118°40'1819.0
2016-Jun-26 18:33N 23°44' E 118°25'2019.7
2016-Jun-26 17:33N 23°31' E 118°09'2519.7
2016-Jun-26 16:17N 23°16' E 117°47'191 5.6
2016-Jun-25 06:29N 22°24' E 114°28'1010.8
2016-Jun-25 05:33N 22°14' E 114°28'10 9.9
2016-Jun-25 04:33N 22°07' E 114°20'19 9.7
2016-Jun-25 02:33N 22°20' E 114°05'1010.3
2016-Jun-25 01:33N 22°23' E 113°54'4 4.5
2016-Jun-25 00:33N 22°27' E 113°53'0 0.0
2016-Jun-24 21:29N 22°27' E 113°53'0 0.0
2016-Jun-24 20:11N 22°27' E 113°53'0 0.0
2016-Jun-24 19:29N 22°27' E 113°53'0 0.0
2016-Jun-24 18:29N 22°27' E 113°53'0 0.0
2016-Jun-24 17:11N 22°27' E 113°53'0 0.0
2016-Jun-24 16:23N 22°27' E 113°53'0 0.0
2016-Jun-24 15:23N 22°27' E 113°53'0 0.0
2016-Jun-24 14:29N 22°27' E 113°53'0 0.0
2016-Jun-24 13:29N 22°27' E 113°53'0 0.0
2016-Jun-24 12:29N 22°27' E 113°53'0 0.0
2016-Jun-24 11:33N 22°27' E 113°53'10 7.1
2016-Jun-24 10:05N 22°21' E 114°03'4 7.7
2016-Jun-24 09:33N 22°18' E 114°06'12 8.7
2016-Jun-24 08:10N 22°09' E 114°14'4 6.6
2016-Jun-24 07:33N 22°08' E 114°18'8 7.8
2016-Jun-24 06:33N 22°07' E 114°27'159 7.5
2016-Jun-23 09:21N 22°49' E 117°13'1313.8
2016-Jun-23 08:24N 22°58' E 117°23'6212.7
2016-Jun-23 03:32N 23°42' E 118°10'1211.8
2016-Jun-23 02:33N 23°53' E 118°14'1211.8
2016-Jun-23 01:33N 24°04' E 118°18'1212.0
2016-Jun-23 00:33N 24°16' E 118°14'1212.5
2016-Jun-22 23:33N 24°25' E 118°05'5 4.5
2016-Jun-22 22:32N 24°27' E 118°00'0 0.0
2016-Jun-22 21:32N 24°27' E 118°00'0 0.0
2016-Jun-22 20:32N 24°27' E 118°00'0 0.0
2016-Jun-22 19:32N 24°27' E 118°00'0 0.1
2016-Jun-22 18:32N 24°27' E 118°00'0 0.1
2016-Jun-22 17:32N 24°27' E 118°00'0 0.0
2016-Jun-22 16:32N 24°27' E 118°00'0 0.0
2016-Jun-22 15:32N 24°27' E 118°00'0 0.0
2016-Jun-22 14:32N 24°27' E 118°00'0 0.0
2016-Jun-22 13:32N 24°27' E 118°00'0 0.0
2016-Jun-22 12:33N 24°27' E 118°00'7 6.9
2016-Jun-22 11:33N 24°23' E 118°07'10 9.5
2016-Jun-22 10:33N 24°18' E 118°16'7 6.5
2016-Jun-22 09:33N 24°18' E 118°23'0 0.1
2016-Jun-22 08:28N 24°18' E 118°23'0 0.0
2016-Jun-22 07:22N 24°18' E 118°23'0 0.1
2016-Jun-22 06:28N 24°18' E 118°23'0 0.0
2016-Jun-22 05:28N 24°18' E 118°23'0 0.1
2016-Jun-22 04:28N 24°18' E 118°23'0 0.0
2016-Jun-22 01:04N 24°18' E 118°23'0 0.0
2016-Jun-22 00:22N 24°18' E 118°23'0 0.0
2016-Jun-21 23:31N 24°18' E 118°23'0 0.0
2016-Jun-21 22:22N 24°18' E 118°23'0 0.0
2016-Jun-21 21:28N 24°18' E 118°23'0 0.0
2016-Jun-21 20:28N 24°18' E 118°23'0 0.0
2016-Jun-21 19:22N 24°18' E 118°23'0 0.2
2016-Jun-21 18:22N 24°18' E 118°23'0 0.1
2016-Jun-21 17:16N 24°18' E 118°23'0 0.2
2016-Jun-21 16:10N 24°18' E 118°23'0 0.2
2016-Jun-21 15:32N 24°18' E 118°23'4410.6
2016-Jun-21 11:24N 24°23' E 119°10'1011.3
2016-Jun-21 10:33N 24°28' E 119°20'1111.1
2016-Jun-21 09:33N 24°32' E 119°31'1111.4
2016-Jun-21 08:33N 24°37' E 119°42'  

Dump ship's entire track history